sensor_id;sensor_type;location;lat;lon;timestamp;pressure;altitude;pressure_sealevel;temperature
8227;BMP180;4154;48.810;9.012;2023-12-07T00:01:34;97272.00;;;2.40
8227;BMP180;4154;48.810;9.012;2023-12-07T00:04:01;97287.00;;;2.30
8227;BMP180;4154;48.810;9.012;2023-12-07T00:06:27;97288.00;;;2.30
8227;BMP180;4154;48.810;9.012;2023-12-07T00:08:53;97284.00;;;2.30
8227;BMP180;4154;48.810;9.012;2023-12-07T00:11:18;97276.00;;;2.30
8227;BMP180;4154;48.810;9.012;2023-12-07T00:13:44;97285.00;;;2.30
8227;BMP180;4154;48.810;9.012;2023-12-07T00:16:10;97288.00;;;2.30
8227;BMP180;4154;48.810;9.012;2023-12-07T00:18:35;97282.00;;;2.30
8227;BMP180;4154;48.810;9.012;2023-12-07T00:21:01;97283.00;;;2.30
8227;BMP180;4154;48.810;9.012;2023-12-07T00:23:27;97304.00;;;2.30
8227;BMP180;4154;48.810;9.012;2023-12-07T00:25:52;97290.00;;;2.40
8227;BMP180;4154;48.810;9.012;2023-12-07T00:28:18;97301.00;;;2.40
8227;BMP180;4154;48.810;9.012;2023-12-07T00:30:44;97296.00;;;2.40
8227;BMP180;4154;48.810;9.012;2023-12-07T00:33:09;97305.00;;;2.30
8227;BMP180;4154;48.810;9.012;2023-12-07T00:35:35;97308.00;;;2.30
8227;BMP180;4154;48.810;9.012;2023-12-07T00:38:01;97306.00;;;2.30
8227;BMP180;4154;48.810;9.012;2023-12-07T00:40:27;97303.00;;;2.30
8227;BMP180;4154;48.810;9.012;2023-12-07T00:42:53;97300.00;;;2.30
8227;BMP180;4154;48.810;9.012;2023-12-07T00:45:18;97301.00;;;2.40
8227;BMP180;4154;48.810;9.012;2023-12-07T00:47:44;97301.00;;;2.40
8227;BMP180;4154;48.810;9.012;2023-12-07T00:50:12;97303.00;;;2.30
8227;BMP180;4154;48.810;9.012;2023-12-07T00:52:39;97299.00;;;2.30
8227;BMP180;4154;48.810;9.012;2023-12-07T00:55:05;97297.00;;;2.30
8227;BMP180;4154;48.810;9.012;2023-12-07T00:57:31;97303.00;;;2.30
8227;BMP180;4154;48.810;9.012;2023-12-07T00:59:57;97299.00;;;2.40
8227;BMP180;4154;48.810;9.012;2023-12-07T01:02:23;97298.00;;;2.40
8227;BMP180;4154;48.810;9.012;2023-12-07T01:04:48;97305.00;;;2.40
8227;BMP180;4154;48.810;9.012;2023-12-07T01:07:14;97306.00;;;2.40
8227;BMP180;4154;48.810;9.012;2023-12-07T01:09:40;97310.00;;;2.40
8227;BMP180;4154;48.810;9.012;2023-12-07T01:12:06;97305.00;;;2.40
8227;BMP180;4154;48.810;9.012;2023-12-07T01:14:31;97314.00;;;2.40
8227;BMP180;4154;48.810;9.012;2023-12-07T01:16:57;97328.00;;;2.40
8227;BMP180;4154;48.810;9.012;2023-12-07T01:19:23;97316.00;;;2.50
8227;BMP180;4154;48.810;9.012;2023-12-07T01:21:50;97320.00;;;2.40
8227;BMP180;4154;48.810;9.012;2023-12-07T01:24:16;97321.00;;;2.30
8227;BMP180;4154;48.810;9.012;2023-12-07T01:26:42;97316.00;;;2.30
8227;BMP180;4154;48.810;9.012;2023-12-07T01:29:08;97332.00;;;2.30
8227;BMP180;4154;48.810;9.012;2023-12-07T01:31:34;97322.00;;;2.30
8227;BMP180;4154;48.810;9.012;2023-12-07T01:33:59;97327.00;;;2.20
8227;BMP180;4154;48.810;9.012;2023-12-07T01:36:25;97323.00;;;2.30
8227;BMP180;4154;48.810;9.012;2023-12-07T01:38:51;97320.00;;;2.30
8227;BMP180;4154;48.810;9.012;2023-12-07T01:41:17;97324.00;;;2.30
8227;BMP180;4154;48.810;9.012;2023-12-07T01:43:47;97340.00;;;2.30
8227;BMP180;4154;48.810;9.012;2023-12-07T01:46:14;97333.00;;;2.20
8227;BMP180;4154;48.810;9.012;2023-12-07T01:48:41;97329.00;;;2.20
8227;BMP180;4154;48.810;9.012;2023-12-07T01:51:09;97332.00;;;2.20
8227;BMP180;4154;48.810;9.012;2023-12-07T01:53:39;97332.00;;;2.10
8227;BMP180;4154;48.810;9.012;2023-12-07T01:56:05;97342.00;;;2.20
8227;BMP180;4154;48.810;9.012;2023-12-07T01:58:32;97334.00;;;2.20
8227;BMP180;4154;48.810;9.012;2023-12-07T02:01:00;97338.00;;;2.10
8227;BMP180;4154;48.810;9.012;2023-12-07T02:03:27;97340.00;;;2.20
8227;BMP180;4154;48.810;9.012;2023-12-07T02:05:54;97342.00;;;2.10
8227;BMP180;4154;48.810;9.012;2023-12-07T02:08:20;97340.00;;;2.10
8227;BMP180;4154;48.810;9.012;2023-12-07T02:10:46;97339.00;;;2.10
8227;BMP180;4154;48.810;9.012;2023-12-07T02:13:12;97337.00;;;2.00
8227;BMP180;4154;48.810;9.012;2023-12-07T02:15:38;97326.00;;;2.00
8227;BMP180;4154;48.810;9.012;2023-12-07T02:18:51;97339.00;;;2.00
8227;BMP180;4154;48.810;9.012;2023-12-07T02:21:37;97329.00;;;2.00
8227;BMP180;4154;48.810;9.012;2023-12-07T02:24:05;97326.00;;;2.00
8227;BMP180;4154;48.810;9.012;2023-12-07T02:26:35;97316.00;;;1.90
8227;BMP180;4154;48.810;9.012;2023-12-07T02:29:02;97324.00;;;1.90
8227;BMP180;4154;48.810;9.012;2023-12-07T02:31:29;97327.00;;;2.00
8227;BMP180;4154;48.810;9.012;2023-12-07T02:33:55;97323.00;;;2.00
8227;BMP180;4154;48.810;9.012;2023-12-07T02:36:24;97333.00;;;2.00
8227;BMP180;4154;48.810;9.012;2023-12-07T02:38:53;97332.00;;;1.90
8227;BMP180;4154;48.810;9.012;2023-12-07T02:41:20;97327.00;;;2.00
8227;BMP180;4154;48.810;9.012;2023-12-07T02:43:47;97330.00;;;1.90
8227;BMP180;4154;48.810;9.012;2023-12-07T02:46:13;97326.00;;;1.90
8227;BMP180;4154;48.810;9.012;2023-12-07T02:48:38;97330.00;;;1.80
8227;BMP180;4154;48.810;9.012;2023-12-07T02:51:04;97328.00;;;1.80
8227;BMP180;4154;48.810;9.012;2023-12-07T02:53:30;97325.00;;;1.80
8227;BMP180;4154;48.810;9.012;2023-12-07T02:55:55;97327.00;;;1.90
8227;BMP180;4154;48.810;9.012;2023-12-07T02:58:21;97329.00;;;1.80
8227;BMP180;4154;48.810;9.012;2023-12-07T03:00:47;97331.00;;;1.70
8227;BMP180;4154;48.810;9.012;2023-12-07T03:03:12;97328.00;;;1.70
8227;BMP180;4154;48.810;9.012;2023-12-07T03:05:38;97331.00;;;1.70
8227;BMP180;4154;48.810;9.012;2023-12-07T03:08:03;97331.00;;;1.70
8227;BMP180;4154;48.810;9.012;2023-12-07T03:10:29;97334.00;;;1.80
8227;BMP180;4154;48.810;9.012;2023-12-07T03:12:55;97333.00;;;1.80
8227;BMP180;4154;48.810;9.012;2023-12-07T03:15:20;97329.00;;;1.80
8227;BMP180;4154;48.810;9.012;2023-12-07T03:17:46;97324.00;;;1.80
8227;BMP180;4154;48.810;9.012;2023-12-07T03:20:12;97328.00;;;1.80
8227;BMP180;4154;48.810;9.012;2023-12-07T03:22:38;97330.00;;;1.70
8227;BMP180;4154;48.810;9.012;2023-12-07T03:25:04;97331.00;;;1.70
8227;BMP180;4154;48.810;9.012;2023-12-07T03:27:29;97335.00;;;1.70
8227;BMP180;4154;48.810;9.012;2023-12-07T03:29:55;97326.00;;;1.60
8227;BMP180;4154;48.810;9.012;2023-12-07T03:32:21;97318.00;;;1.60
8227;BMP180;4154;48.810;9.012;2023-12-07T03:34:47;97327.00;;;1.50
8227;BMP180;4154;48.810;9.012;2023-12-07T03:37:12;97333.00;;;1.50
8227;BMP180;4154;48.810;9.012;2023-12-07T03:39:38;97339.00;;;1.50
8227;BMP180;4154;48.810;9.012;2023-12-07T03:42:04;97334.00;;;1.50
8227;BMP180;4154;48.810;9.012;2023-12-07T03:44:30;97348.00;;;1.50
8227;BMP180;4154;48.810;9.012;2023-12-07T03:46:56;97347.00;;;1.50
8227;BMP180;4154;48.810;9.012;2023-12-07T03:49:22;97334.00;;;1.40
8227;BMP180;4154;48.810;9.012;2023-12-07T03:51:47;97339.00;;;1.40
8227;BMP180;4154;48.810;9.012;2023-12-07T03:54:13;97341.00;;;1.40
8227;BMP180;4154;48.810;9.012;2023-12-07T03:56:38;97341.00;;;1.40
8227;BMP180;4154;48.810;9.012;2023-12-07T03:59:06;97342.00;;;1.30
8227;BMP180;4154;48.810;9.012;2023-12-07T04:01:31;97340.00;;;1.20
8227;BMP180;4154;48.810;9.012;2023-12-07T04:03:58;97355.00;;;1.20
8227;BMP180;4154;48.810;9.012;2023-12-07T04:06:24;97355.00;;;1.20
8227;BMP180;4154;48.810;9.012;2023-12-07T04:08:51;97358.00;;;1.20
8227;BMP180;4154;48.810;9.012;2023-12-07T04:11:16;97345.00;;;1.10
8227;BMP180;4154;48.810;9.012;2023-12-07T04:13:43;97352.00;;;1.20
8227;BMP180;4154;48.810;9.012;2023-12-07T04:16:10;97353.00;;;1.20
8227;BMP180;4154;48.810;9.012;2023-12-07T04:18:36;97353.00;;;1.10
8227;BMP180;4154;48.810;9.012;2023-12-07T04:21:03;97359.00;;;1.10
8227;BMP180;4154;48.810;9.012;2023-12-07T04:23:29;97358.00;;;1.10
8227;BMP180;4154;48.810;9.012;2023-12-07T04:25:54;97353.00;;;1.00
8227;BMP180;4154;48.810;9.012;2023-12-07T04:28:20;97356.00;;;1.00
8227;BMP180;4154;48.810;9.012;2023-12-07T04:30:46;97351.00;;;0.90
8227;BMP180;4154;48.810;9.012;2023-12-07T04:33:11;97355.00;;;0.90
8227;BMP180;4154;48.810;9.012;2023-12-07T04:35:37;97350.00;;;0.90
8227;BMP180;4154;48.810;9.012;2023-12-07T04:38:03;97359.00;;;0.90
8227;BMP180;4154;48.810;9.012;2023-12-07T04:40:28;97365.00;;;0.80
8227;BMP180;4154;48.810;9.012;2023-12-07T04:42:54;97364.00;;;0.80
8227;BMP180;4154;48.810;9.012;2023-12-07T04:45:20;97353.00;;;0.80
8227;BMP180;4154;48.810;9.012;2023-12-07T04:47:45;97355.00;;;0.80
8227;BMP180;4154;48.810;9.012;2023-12-07T04:50:12;97362.00;;;0.80
8227;BMP180;4154;48.810;9.012;2023-12-07T04:52:38;97360.00;;;0.70
8227;BMP180;4154;48.810;9.012;2023-12-07T04:55:05;97363.00;;;0.70
8227;BMP180;4154;48.810;9.012;2023-12-07T04:57:35;97360.00;;;0.70
8227;BMP180;4154;48.810;9.012;2023-12-07T05:00:02;97361.00;;;0.70
8227;BMP180;4154;48.810;9.012;2023-12-07T05:02:32;97362.00;;;0.70
8227;BMP180;4154;48.810;9.012;2023-12-07T05:04:57;97365.00;;;0.70
8227;BMP180;4154;48.810;9.012;2023-12-07T05:07:23;97363.00;;;0.60
8227;BMP180;4154;48.810;9.012;2023-12-07T05:09:50;97362.00;;;0.60
8227;BMP180;4154;48.810;9.012;2023-12-07T05:12:18;97369.00;;;0.60
8227;BMP180;4154;48.810;9.012;2023-12-07T05:14:44;97372.00;;;0.60
8227;BMP180;4154;48.810;9.012;2023-12-07T05:17:09;97372.00;;;0.60
8227;BMP180;4154;48.810;9.012;2023-12-07T05:19:35;97375.00;;;0.60
8227;BMP180;4154;48.810;9.012;2023-12-07T05:22:02;97371.00;;;0.60
8227;BMP180;4154;48.810;9.012;2023-12-07T05:24:28;97380.00;;;0.60
8227;BMP180;4154;48.810;9.012;2023-12-07T05:26:53;97375.00;;;0.60
8227;BMP180;4154;48.810;9.012;2023-12-07T05:29:20;97372.00;;;0.60
8227;BMP180;4154;48.810;9.012;2023-12-07T05:31:49;97376.00;;;0.50
8227;BMP180;4154;48.810;9.012;2023-12-07T05:34:18;97369.00;;;0.50
8227;BMP180;4154;48.810;9.012;2023-12-07T05:36:44;97372.00;;;0.50
8227;BMP180;4154;48.810;9.012;2023-12-07T05:39:10;97376.00;;;0.50
8227;BMP180;4154;48.810;9.012;2023-12-07T05:41:36;97378.00;;;0.40
8227;BMP180;4154;48.810;9.012;2023-12-07T05:44:03;97362.00;;;0.40
8227;BMP180;4154;48.810;9.012;2023-12-07T05:46:29;97372.00;;;0.40
8227;BMP180;4154;48.810;9.012;2023-12-07T05:48:55;97368.00;;;0.30
8227;BMP180;4154;48.810;9.012;2023-12-07T05:51:20;97372.00;;;0.30
8227;BMP180;4154;48.810;9.012;2023-12-07T05:53:46;97376.00;;;0.30
8227;BMP180;4154;48.810;9.012;2023-12-07T05:56:12;97372.00;;;0.30
8227;BMP180;4154;48.810;9.012;2023-12-07T05:58:43;97367.00;;;0.30
8227;BMP180;4154;48.810;9.012;2023-12-07T06:01:08;97354.00;;;0.30
8227;BMP180;4154;48.810;9.012;2023-12-07T06:03:34;97367.00;;;0.30
8227;BMP180;4154;48.810;9.012;2023-12-07T06:06:00;97369.00;;;0.20
8227;BMP180;4154;48.810;9.012;2023-12-07T06:08:26;97368.00;;;0.30
8227;BMP180;4154;48.810;9.012;2023-12-07T06:10:52;97373.00;;;0.30
8227;BMP180;4154;48.810;9.012;2023-12-07T06:13:18;97378.00;;;0.30
8227;BMP180;4154;48.810;9.012;2023-12-07T06:15:43;97368.00;;;0.30
8227;BMP180;4154;48.810;9.012;2023-12-07T06:18:09;97371.00;;;0.30
8227;BMP180;4154;48.810;9.012;2023-12-07T06:20:35;97370.00;;;0.30
8227;BMP180;4154;48.810;9.012;2023-12-07T06:23:00;97360.00;;;0.30
8227;BMP180;4154;48.810;9.012;2023-12-07T06:25:27;97360.00;;;0.30
8227;BMP180;4154;48.810;9.012;2023-12-07T06:27:53;97366.00;;;0.30
8227;BMP180;4154;48.810;9.012;2023-12-07T06:30:18;97363.00;;;0.20
8227;BMP180;4154;48.810;9.012;2023-12-07T06:32:44;97359.00;;;0.20
8227;BMP180;4154;48.810;9.012;2023-12-07T06:35:13;97374.00;;;0.30
8227;BMP180;4154;48.810;9.012;2023-12-07T06:37:39;97374.00;;;0.30
8227;BMP180;4154;48.810;9.012;2023-12-07T06:40:08;97364.00;;;0.20
8227;BMP180;4154;48.810;9.012;2023-12-07T06:42:35;97367.00;;;0.20
8227;BMP180;4154;48.810;9.012;2023-12-07T06:45:02;97357.00;;;0.20
8227;BMP180;4154;48.810;9.012;2023-12-07T06:47:28;97372.00;;;0.20
8227;BMP180;4154;48.810;9.012;2023-12-07T06:49:55;97370.00;;;0.20
8227;BMP180;4154;48.810;9.012;2023-12-07T06:52:24;97368.00;;;0.10
8227;BMP180;4154;48.810;9.012;2023-12-07T06:54:49;97371.00;;;0.10
8227;BMP180;4154;48.810;9.012;2023-12-07T06:57:15;97368.00;;;0.10
8227;BMP180;4154;48.810;9.012;2023-12-07T06:59:40;97371.00;;;0.10
8227;BMP180;4154;48.810;9.012;2023-12-07T07:02:06;97371.00;;;0.10
8227;BMP180;4154;48.810;9.012;2023-12-07T07:04:32;97371.00;;;0.10
8227;BMP180;4154;48.810;9.012;2023-12-07T07:06:58;97382.00;;;0.10
8227;BMP180;4154;48.810;9.012;2023-12-07T07:09:23;97385.00;;;0.10
8227;BMP180;4154;48.810;9.012;2023-12-07T07:11:49;97373.00;;;0.10
8227;BMP180;4154;48.810;9.012;2023-12-07T07:14:15;97382.00;;;0.00
8227;BMP180;4154;48.810;9.012;2023-12-07T07:16:42;97369.00;;;0.00
8227;BMP180;4154;48.810;9.012;2023-12-07T07:19:08;97361.00;;;-0.10
8227;BMP180;4154;48.810;9.012;2023-12-07T07:21:34;97357.00;;;0.00
8227;BMP180;4154;48.810;9.012;2023-12-07T07:24:00;97364.00;;;0.00
8227;BMP180;4154;48.810;9.012;2023-12-07T07:26:26;97360.00;;;0.00
8227;BMP180;4154;48.810;9.012;2023-12-07T07:28:52;97372.00;;;0.00
8227;BMP180;4154;48.810;9.012;2023-12-07T07:31:18;97371.00;;;0.00
8227;BMP180;4154;48.810;9.012;2023-12-07T07:33:45;97371.00;;;0.10
8227;BMP180;4154;48.810;9.012;2023-12-07T07:36:13;97366.00;;;0.10
8227;BMP180;4154;48.810;9.012;2023-12-07T07:38:40;97367.00;;;0.00
8227;BMP180;4154;48.810;9.012;2023-12-07T07:41:06;97366.00;;;0.00
8227;BMP180;4154;48.810;9.012;2023-12-07T07:43:31;97366.00;;;0.10
8227;BMP180;4154;48.810;9.012;2023-12-07T07:46:00;97376.00;;;0.00
8227;BMP180;4154;48.810;9.012;2023-12-07T07:48:25;97378.00;;;0.00
8227;BMP180;4154;48.810;9.012;2023-12-07T07:50:51;97378.00;;;0.00
8227;BMP180;4154;48.810;9.012;2023-12-07T07:53:17;97382.00;;;0.00
8227;BMP180;4154;48.810;9.012;2023-12-07T07:55:43;97384.00;;;0.00
8227;BMP180;4154;48.810;9.012;2023-12-07T07:58:09;97380.00;;;0.00
8227;BMP180;4154;48.810;9.012;2023-12-07T08:00:35;97390.00;;;0.10
8227;BMP180;4154;48.810;9.012;2023-12-07T08:03:01;97380.00;;;0.10
8227;BMP180;4154;48.810;9.012;2023-12-07T08:05:27;97389.00;;;0.10
8227;BMP180;4154;48.810;9.012;2023-12-07T08:07:52;97388.00;;;0.10
8227;BMP180;4154;48.810;9.012;2023-12-07T08:10:18;97389.00;;;0.10
8227;BMP180;4154;48.810;9.012;2023-12-07T08:12:45;97388.00;;;0.10
8227;BMP180;4154;48.810;9.012;2023-12-07T08:15:10;97394.00;;;0.10
8227;BMP180;4154;48.810;9.012;2023-12-07T08:17:40;97385.00;;;0.00
8227;BMP180;4154;48.810;9.012;2023-12-07T08:20:08;97385.00;;;0.10
8227;BMP180;4154;48.810;9.012;2023-12-07T08:22:39;97386.00;;;0.10
8227;BMP180;4154;48.810;9.012;2023-12-07T08:25:07;97380.00;;;0.10
8227;BMP180;4154;48.810;9.012;2023-12-07T08:27:33;97383.00;;;0.20
8227;BMP180;4154;48.810;9.012;2023-12-07T08:29:59;97391.00;;;0.30
8227;BMP180;4154;48.810;9.012;2023-12-07T08:32:25;97394.00;;;0.30
8227;BMP180;4154;48.810;9.012;2023-12-07T08:34:54;97393.00;;;0.30
8227;BMP180;4154;48.810;9.012;2023-12-07T08:37:20;97390.00;;;0.40
8227;BMP180;4154;48.810;9.012;2023-12-07T08:39:45;97392.00;;;0.50
8227;BMP180;4154;48.810;9.012;2023-12-07T08:42:11;97390.00;;;0.50
8227;BMP180;4154;48.810;9.012;2023-12-07T08:44:38;97392.00;;;0.50
8227;BMP180;4154;48.810;9.012;2023-12-07T08:47:05;97368.00;;;0.50
8227;BMP180;4154;48.810;9.012;2023-12-07T08:49:31;97374.00;;;0.50
8227;BMP180;4154;48.810;9.012;2023-12-07T08:51:58;97376.00;;;0.50
8227;BMP180;4154;48.810;9.012;2023-12-07T08:54:24;97367.00;;;0.60
8227;BMP180;4154;48.810;9.012;2023-12-07T08:56:49;97365.00;;;0.60
8227;BMP180;4154;48.810;9.012;2023-12-07T08:59:15;97378.00;;;0.60
8227;BMP180;4154;48.810;9.012;2023-12-07T09:01:40;97379.00;;;0.70
8227;BMP180;4154;48.810;9.012;2023-12-07T09:04:06;97369.00;;;0.70
8227;BMP180;4154;48.810;9.012;2023-12-07T09:06:32;97367.00;;;0.70
8227;BMP180;4154;48.810;9.012;2023-12-07T09:08:57;97370.00;;;0.80
8227;BMP180;4154;48.810;9.012;2023-12-07T09:11:24;97366.00;;;0.80
8227;BMP180;4154;48.810;9.012;2023-12-07T09:13:50;97370.00;;;0.80
8227;BMP180;4154;48.810;9.012;2023-12-07T09:16:16;97360.00;;;0.90
8227;BMP180;4154;48.810;9.012;2023-12-07T09:18:42;97364.00;;;0.90
8227;BMP180;4154;48.810;9.012;2023-12-07T09:21:10;97370.00;;;1.00
8227;BMP180;4154;48.810;9.012;2023-12-07T09:23:36;97369.00;;;1.00
8227;BMP180;4154;48.810;9.012;2023-12-07T09:26:03;97366.00;;;1.00
8227;BMP180;4154;48.810;9.012;2023-12-07T09:28:29;97367.00;;;1.10
8227;BMP180;4154;48.810;9.012;2023-12-07T09:30:55;97364.00;;;1.10
8227;BMP180;4154;48.810;9.012;2023-12-07T09:33:20;97352.00;;;1.10
8227;BMP180;4154;48.810;9.012;2023-12-07T09:35:46;97356.00;;;1.20
8227;BMP180;4154;48.810;9.012;2023-12-07T09:38:12;97363.00;;;1.30
8227;BMP180;4154;48.810;9.012;2023-12-07T09:40:38;97356.00;;;1.30
8227;BMP180;4154;48.810;9.012;2023-12-07T09:43:04;97364.00;;;1.40
8227;BMP180;4154;48.810;9.012;2023-12-07T09:45:29;97352.00;;;1.40
8227;BMP180;4154;48.810;9.012;2023-12-07T09:47:55;97351.00;;;1.50
8227;BMP180;4154;48.810;9.012;2023-12-07T09:50:24;97352.00;;;1.50
8227;BMP180;4154;48.810;9.012;2023-12-07T09:52:52;97345.00;;;1.50
8227;BMP180;4154;48.810;9.012;2023-12-07T09:55:19;97346.00;;;1.50
8227;BMP180;4154;48.810;9.012;2023-12-07T09:57:46;97353.00;;;1.60
8227;BMP180;4154;48.810;9.012;2023-12-07T10:00:13;97354.00;;;1.60
8227;BMP180;4154;48.810;9.012;2023-12-07T10:02:42;97342.00;;;1.60
8227;BMP180;4154;48.810;9.012;2023-12-07T10:05:14;97345.00;;;1.70
8227;BMP180;4154;48.810;9.012;2023-12-07T10:07:43;97331.00;;;1.70
8227;BMP180;4154;48.810;9.012;2023-12-07T10:10:10;97319.00;;;1.70
8227;BMP180;4154;48.810;9.012;2023-12-07T10:12:53;97312.00;;;1.70
8227;BMP180;4154;48.810;9.012;2023-12-07T10:15:21;97308.00;;;1.70
8227;BMP180;4154;48.810;9.012;2023-12-07T10:17:51;97313.00;;;1.80
8227;BMP180;4154;48.810;9.012;2023-12-07T10:20:23;97323.00;;;1.80
8227;BMP180;4154;48.810;9.012;2023-12-07T10:23:04;97312.00;;;1.80
8227;BMP180;4154;48.810;9.012;2023-12-07T10:25:41;97306.00;;;1.80
8227;BMP180;4154;48.810;9.012;2023-12-07T10:28:08;97310.00;;;1.80
8227;BMP180;4154;48.810;9.012;2023-12-07T10:30:37;97303.00;;;1.80
8227;BMP180;4154;48.810;9.012;2023-12-07T10:33:05;97296.00;;;1.80
8227;BMP180;4154;48.810;9.012;2023-12-07T10:35:32;97297.00;;;1.90
8227;BMP180;4154;48.810;9.012;2023-12-07T10:37:58;97295.00;;;1.90
8227;BMP180;4154;48.810;9.012;2023-12-07T10:40:24;97291.00;;;1.90
8227;BMP180;4154;48.810;9.012;2023-12-07T10:42:57;97302.00;;;2.00
8227;BMP180;4154;48.810;9.012;2023-12-07T10:45:26;97310.00;;;2.00
8227;BMP180;4154;48.810;9.012;2023-12-07T10:48:04;97298.00;;;2.10
8227;BMP180;4154;48.810;9.012;2023-12-07T10:50:42;97300.00;;;2.10
8227;BMP180;4154;48.810;9.012;2023-12-07T10:53:27;97290.00;;;2.10
8227;BMP180;4154;48.810;9.012;2023-12-07T10:56:00;97281.00;;;2.20
8227;BMP180;4154;48.810;9.012;2023-12-07T10:58:26;97287.00;;;2.20
8227;BMP180;4154;48.810;9.012;2023-12-07T11:00:53;97274.00;;;2.20
8227;BMP180;4154;48.810;9.012;2023-12-07T11:03:20;97271.00;;;2.20
8227;BMP180;4154;48.810;9.012;2023-12-07T11:05:48;97268.00;;;2.20
8227;BMP180;4154;48.810;9.012;2023-12-07T11:08:28;97258.00;;;2.30
8227;BMP180;4154;48.810;9.012;2023-12-07T11:11:27;97253.00;;;2.30
8227;BMP180;4154;48.810;9.012;2023-12-07T11:14:06;97245.00;;;2.30
8227;BMP180;4154;48.810;9.012;2023-12-07T11:16:34;97242.00;;;2.40
8227;BMP180;4154;48.810;9.012;2023-12-07T11:19:01;97233.00;;;2.50
8227;BMP180;4154;48.810;9.012;2023-12-07T11:21:27;97231.00;;;2.60
8227;BMP180;4154;48.810;9.012;2023-12-07T11:23:54;97227.00;;;2.60
8227;BMP180;4154;48.810;9.012;2023-12-07T11:26:26;97226.00;;;2.60
8227;BMP180;4154;48.810;9.012;2023-12-07T11:28:53;97224.00;;;2.60
8227;BMP180;4154;48.810;9.012;2023-12-07T11:31:21;97208.00;;;2.70
8227;BMP180;4154;48.810;9.012;2023-12-07T11:33:47;97214.00;;;2.70
8227;BMP180;4154;48.810;9.012;2023-12-07T11:36:13;97214.00;;;2.80
8227;BMP180;4154;48.810;9.012;2023-12-07T11:41:43;97183.00;;;2.90
8227;BMP180;4154;48.810;9.012;2023-12-07T11:44:10;97177.00;;;2.90
8227;BMP180;4154;48.810;9.012;2023-12-07T11:46:39;97177.00;;;3.00
8227;BMP180;4154;48.810;9.012;2023-12-07T11:49:05;97173.00;;;3.10
8227;BMP180;4154;48.810;9.012;2023-12-07T11:51:36;97177.00;;;3.00
8227;BMP180;4154;48.810;9.012;2023-12-07T11:54:02;97173.00;;;3.10
8227;BMP180;4154;48.810;9.012;2023-12-07T11:56:28;97170.00;;;3.10
8227;BMP180;4154;48.810;9.012;2023-12-07T11:58:54;97173.00;;;3.20
8227;BMP180;4154;48.810;9.012;2023-12-07T12:01:24;97172.00;;;3.30
8227;BMP180;4154;48.810;9.012;2023-12-07T12:03:49;97156.00;;;3.30
8227;BMP180;4154;48.810;9.012;2023-12-07T12:06:15;97147.00;;;3.30
8227;BMP180;4154;48.810;9.012;2023-12-07T12:08:41;97141.00;;;3.30
8227;BMP180;4154;48.810;9.012;2023-12-07T12:11:08;97147.00;;;3.30
8227;BMP180;4154;48.810;9.012;2023-12-07T12:13:35;97141.00;;;3.30
8227;BMP180;4154;48.810;9.012;2023-12-07T12:16:03;97145.00;;;3.30
8227;BMP180;4154;48.810;9.012;2023-12-07T12:18:29;97125.00;;;3.40
8227;BMP180;4154;48.810;9.012;2023-12-07T12:20:54;97135.00;;;3.40
8227;BMP180;4154;48.810;9.012;2023-12-07T12:23:21;97124.00;;;3.40
8227;BMP180;4154;48.810;9.012;2023-12-07T12:25:47;97119.00;;;3.40
8227;BMP180;4154;48.810;9.012;2023-12-07T12:28:16;97122.00;;;3.50
8227;BMP180;4154;48.810;9.012;2023-12-07T12:30:44;97117.00;;;3.50
8227;BMP180;4154;48.810;9.012;2023-12-07T12:33:10;97110.00;;;3.50
8227;BMP180;4154;48.810;9.012;2023-12-07T12:35:36;97105.00;;;3.50
8227;BMP180;4154;48.810;9.012;2023-12-07T12:38:01;97092.00;;;3.50
8227;BMP180;4154;48.810;9.012;2023-12-07T12:40:28;97087.00;;;3.50
8227;BMP180;4154;48.810;9.012;2023-12-07T12:42:57;97092.00;;;3.50
8227;BMP180;4154;48.810;9.012;2023-12-07T12:45:23;97094.00;;;3.60
8227;BMP180;4154;48.810;9.012;2023-12-07T12:47:49;97078.00;;;3.60
8227;BMP180;4154;48.810;9.012;2023-12-07T12:50:39;97090.00;;;3.60
8227;BMP180;4154;48.810;9.012;2023-12-07T12:53:10;97077.00;;;3.60
8227;BMP180;4154;48.810;9.012;2023-12-07T12:55:38;97082.00;;;3.60
8227;BMP180;4154;48.810;9.012;2023-12-07T12:58:07;97080.00;;;3.60
8227;BMP180;4154;48.810;9.012;2023-12-07T13:00:34;97083.00;;;3.60
8227;BMP180;4154;48.810;9.012;2023-12-07T13:03:05;97084.00;;;3.70
8227;BMP180;4154;48.810;9.012;2023-12-07T13:05:31;97080.00;;;3.60
8227;BMP180;4154;48.810;9.012;2023-12-07T13:07:58;97075.00;;;3.60
8227;BMP180;4154;48.810;9.012;2023-12-07T13:10:25;97069.00;;;3.60
8227;BMP180;4154;48.810;9.012;2023-12-07T13:12:51;97066.00;;;3.60
8227;BMP180;4154;48.810;9.012;2023-12-07T13:15:17;97086.00;;;3.70
8227;BMP180;4154;48.810;9.012;2023-12-07T13:17:43;97074.00;;;3.60
8227;BMP180;4154;48.810;9.012;2023-12-07T13:20:10;97074.00;;;3.60
8227;BMP180;4154;48.810;9.012;2023-12-07T13:22:41;97077.00;;;3.60
8227;BMP180;4154;48.810;9.012;2023-12-07T13:25:09;97081.00;;;3.60
8227;BMP180;4154;48.810;9.012;2023-12-07T13:27:36;97073.00;;;3.60
8227;BMP180;4154;48.810;9.012;2023-12-07T13:30:03;97073.00;;;3.60
8227;BMP180;4154;48.810;9.012;2023-12-07T13:32:36;97084.00;;;3.60
8227;BMP180;4154;48.810;9.012;2023-12-07T13:35:05;97080.00;;;3.60
8227;BMP180;4154;48.810;9.012;2023-12-07T13:37:31;97085.00;;;3.60
8227;BMP180;4154;48.810;9.012;2023-12-07T13:39:58;97082.00;;;3.60
8227;BMP180;4154;48.810;9.012;2023-12-07T13:42:26;97075.00;;;3.60
8227;BMP180;4154;48.810;9.012;2023-12-07T13:44:57;97075.00;;;3.70
8227;BMP180;4154;48.810;9.012;2023-12-07T13:47:27;97077.00;;;3.70
8227;BMP180;4154;48.810;9.012;2023-12-07T13:50:00;97075.00;;;3.70
8227;BMP180;4154;48.810;9.012;2023-12-07T13:52:26;97076.00;;;3.70
8227;BMP180;4154;48.810;9.012;2023-12-07T13:54:54;97079.00;;;3.70
8227;BMP180;4154;48.810;9.012;2023-12-07T13:57:21;97083.00;;;3.70
8227;BMP180;4154;48.810;9.012;2023-12-07T13:59:50;97081.00;;;3.80
8227;BMP180;4154;48.810;9.012;2023-12-07T14:02:16;97074.00;;;3.70
8227;BMP180;4154;48.810;9.012;2023-12-07T14:04:42;97069.00;;;3.80
8227;BMP180;4154;48.810;9.012;2023-12-07T14:07:12;97061.00;;;3.70
8227;BMP180;4154;48.810;9.012;2023-12-07T14:09:41;97069.00;;;3.80
8227;BMP180;4154;48.810;9.012;2023-12-07T14:12:09;97068.00;;;3.70
8227;BMP180;4154;48.810;9.012;2023-12-07T14:14:36;97067.00;;;3.70
8227;BMP180;4154;48.810;9.012;2023-12-07T14:17:02;97077.00;;;3.70
8227;BMP180;4154;48.810;9.012;2023-12-07T14:19:29;97072.00;;;3.70
8227;BMP180;4154;48.810;9.012;2023-12-07T14:21:54;97063.00;;;3.70
8227;BMP180;4154;48.810;9.012;2023-12-07T14:24:22;97066.00;;;3.60
8227;BMP180;4154;48.810;9.012;2023-12-07T14:26:48;97059.00;;;3.60
8227;BMP180;4154;48.810;9.012;2023-12-07T14:29:14;97066.00;;;3.60
8227;BMP180;4154;48.810;9.012;2023-12-07T14:31:47;97061.00;;;3.60
8227;BMP180;4154;48.810;9.012;2023-12-07T14:34:14;97059.00;;;3.50
8227;BMP180;4154;48.810;9.012;2023-12-07T14:36:41;97053.00;;;3.50
8227;BMP180;4154;48.810;9.012;2023-12-07T14:39:13;97057.00;;;3.50
8227;BMP180;4154;48.810;9.012;2023-12-07T14:41:51;97043.00;;;3.40
8227;BMP180;4154;48.810;9.012;2023-12-07T14:44:18;97031.00;;;3.50
8227;BMP180;4154;48.810;9.012;2023-12-07T14:46:45;97039.00;;;3.40
8227;BMP180;4154;48.810;9.012;2023-12-07T14:49:17;97020.00;;;3.40
8227;BMP180;4154;48.810;9.012;2023-12-07T14:51:43;97022.00;;;3.40